Birmingham, AL

2:18 PM CST on December 08, 2016 (GMT -0600)
UAB HHB | | Change Station

Elev 617 ft 33.50 °N, 86.81 °W | Updated 38 seconds ago

Partly Cloudy
Partly Cloudy
44.0 °F
Feels Like 39 °F
N
9.0
Wind Variable Wind from ESE
Gusts 18.0 mph

Today
High -- | Low -- °F
--% Chance of Precip.
Yesterday
High -- | Low -- °F
Precip. -- in
Pressure 30.39 in
Visibility 10.0 miles
Clouds Mostly Cloudy 14000 ft
Mostly Cloudy 25000 ft
Windchill 39 °F
Dew Point 27 °F
Humidity 51%
Rainfall 0.00 in
Snow Depth Not available.
6:39 AM 4:39 PM
Waxing Gibbous, 66% visible
METAR KBHM 081953Z 34011KT 10SM BKN140 BKN250 07/M04 A3038 RMK AO2 SLP289 T00671044
Pressure 30.39 in
Visibility 10.0 miles
Clouds Mostly Cloudy 14000 ft
Mostly Cloudy 25000 ft
Windchill 39 °F
Dew Point 27 °F
Humidity 51%
Rainfall 0.00 in
Snow Depth Not available.
6:39 AM 4:39 PM
Waxing Gibbous, 66% visible
METAR KBHM 081953Z 34011KT 10SM BKN140 BKN250 07/M04 A3038 RMK AO2 SLP289 T00671044

10-Day Weather Forecast

Almanac

Astronomy

Dec. 08, 2016 Rise Set
Actual Time
Civil Twilight
Nautical Twilight
Astronomical Twilight
Moon
Length of Visible Light
Length of Day
Tomorrow will be .
, % of the Moon is Illuminated

Today's Extremes

State Highs State Lows

Community

WunderPhotos

Upload Photos

1,956,277 photos uploaded!

WunderBlog® & News

Nearby

Air Quality

  Air Quality AQ Index Pollutant
Not available.

Snow Depth

Station Depth Elevation

Earthquake Activity

City Distance Mag. Time & Date
Minimum magnitude displayed is 2.5.

Coastal Water Temperatures

Place Temperature

Stations

Nearby Weather Stations

Station Location Temp. Windchill Dew Point Humidity Wind Precip. Elev Updated Type
                   

Watches & Warnings

There are currently no watches in effect.